sensor_id;sensor_type;location;lat;lon;timestamp;P1;durP1;ratioP1;P2;durP2;ratioP2
37199;SDS011;23096;50.892;16.746;2023-05-10T00:00:43;6.70;;;5.00;;
37199;SDS011;23096;50.892;16.746;2023-05-10T00:03:08;7.20;;;5.10;;
37199;SDS011;23096;50.892;16.746;2023-05-10T00:05:34;9.30;;;5.10;;
37199;SDS011;23096;50.892;16.746;2023-05-10T00:07:59;10.00;;;6.20;;
37199;SDS011;23096;50.892;16.746;2023-05-10T00:10:25;10.20;;;5.40;;
37199;SDS011;23096;50.892;16.746;2023-05-10T00:12:51;8.30;;;5.40;;
37199;SDS011;23096;50.892;16.746;2023-05-10T00:15:16;8.70;;;5.40;;
37199;SDS011;23096;50.892;16.746;2023-05-10T00:17:42;9.20;;;5.50;;
37199;SDS011;23096;50.892;16.746;2023-05-10T00:20:07;10.10;;;5.80;;
37199;SDS011;23096;50.892;16.746;2023-05-10T00:22:33;7.50;;;5.20;;
37199;SDS011;23096;50.892;16.746;2023-05-10T00:24:59;7.70;;;5.20;;
37199;SDS011;23096;50.892;16.746;2023-05-10T00:27:24;7.60;;;5.50;;
37199;SDS011;23096;50.892;16.746;2023-05-10T00:29:50;7.60;;;5.10;;
37199;SDS011;23096;50.892;16.746;2023-05-10T00:32:16;7.80;;;4.80;;
37199;SDS011;23096;50.892;16.746;2023-05-10T00:34:42;11.70;;;5.30;;
37199;SDS011;23096;50.892;16.746;2023-05-10T00:37:07;6.50;;;4.70;;
37199;SDS011;23096;50.892;16.746;2023-05-10T00:39:33;13.60;;;5.60;;
37199;SDS011;23096;50.892;16.746;2023-05-10T00:41:59;7.50;;;4.70;;
37199;SDS011;23096;50.892;16.746;2023-05-10T00:44:26;7.60;;;4.90;;
37199;SDS011;23096;50.892;16.746;2023-05-10T00:46:51;5.90;;;4.50;;
37199;SDS011;23096;50.892;16.746;2023-05-10T00:49:18;8.30;;;5.30;;
37199;SDS011;23096;50.892;16.746;2023-05-10T00:51:45;9.50;;;4.90;;
37199;SDS011;23096;50.892;16.746;2023-05-10T00:54:11;9.10;;;4.90;;
37199;SDS011;23096;50.892;16.746;2023-05-10T00:56:39;9.00;;;5.20;;
37199;SDS011;23096;50.892;16.746;2023-05-10T00:59:05;10.80;;;4.70;;
37199;SDS011;23096;50.892;16.746;2023-05-10T01:01:31;7.30;;;4.90;;
37199;SDS011;23096;50.892;16.746;2023-05-10T01:03:57;8.70;;;5.10;;
37199;SDS011;23096;50.892;16.746;2023-05-10T01:06:23;11.50;;;5.30;;
37199;SDS011;23096;50.892;16.746;2023-05-10T01:08:49;6.00;;;4.40;;
37199;SDS011;23096;50.892;16.746;2023-05-10T01:11:15;10.20;;;5.60;;
37199;SDS011;23096;50.892;16.746;2023-05-10T01:13:42;6.70;;;4.70;;
37199;SDS011;23096;50.892;16.746;2023-05-10T01:16:14;9.70;;;5.30;;
37199;SDS011;23096;50.892;16.746;2023-05-10T01:18:40;10.60;;;5.20;;
37199;SDS011;23096;50.892;16.746;2023-05-10T01:32:51;8.90;;;5.40;;
37199;SDS011;23096;50.892;16.746;2023-05-10T01:35:31;8.30;;;5.30;;
37199;SDS011;23096;50.892;16.746;2023-05-10T01:40:35;9.60;;;6.60;;
37199;SDS011;23096;50.892;16.746;2023-05-10T01:43:08;8.70;;;5.40;;
37199;SDS011;23096;50.892;16.746;2023-05-10T01:45:47;7.50;;;5.10;;
37199;SDS011;23096;50.892;16.746;2023-05-10T01:48:18;7.40;;;4.70;;
37199;SDS011;23096;50.892;16.746;2023-05-10T01:50:46;8.10;;;5.00;;
37199;SDS011;23096;50.892;16.746;2023-05-10T01:53:13;8.30;;;5.00;;
37199;SDS011;23096;50.892;16.746;2023-05-10T01:55:50;7.10;;;5.10;;
37199;SDS011;23096;50.892;16.746;2023-05-10T01:58:22;6.90;;;5.10;;
37199;SDS011;23096;50.892;16.746;2023-05-10T02:00:52;9.60;;;6.40;;
37199;SDS011;23096;50.892;16.746;2023-05-10T02:03:23;9.80;;;6.10;;
37199;SDS011;23096;50.892;16.746;2023-05-10T02:05:50;8.00;;;5.70;;
37199;SDS011;23096;50.892;16.746;2023-05-10T02:08:20;9.00;;;5.60;;
37199;SDS011;23096;50.892;16.746;2023-05-10T02:10:47;9.60;;;5.30;;
37199;SDS011;23096;50.892;16.746;2023-05-10T02:13:15;7.90;;;5.70;;
37199;SDS011;23096;50.892;16.746;2023-05-10T02:15:43;10.60;;;5.80;;
37199;SDS011;23096;50.892;16.746;2023-05-10T02:18:13;8.40;;;5.20;;
37199;SDS011;23096;50.892;16.746;2023-05-10T02:20:39;9.40;;;6.00;;
37199;SDS011;23096;50.892;16.746;2023-05-10T02:23:05;7.80;;;5.70;;
37199;SDS011;23096;50.892;16.746;2023-05-10T02:25:35;8.20;;;5.20;;
37199;SDS011;23096;50.892;16.746;2023-05-10T02:28:04;7.50;;;4.80;;
37199;SDS011;23096;50.892;16.746;2023-05-10T02:30:32;12.50;;;5.70;;
37199;SDS011;23096;50.892;16.746;2023-05-10T02:33:00;8.90;;;5.70;;
37199;SDS011;23096;50.892;16.746;2023-05-10T02:35:28;8.60;;;5.60;;
37199;SDS011;23096;50.892;16.746;2023-05-10T02:37:54;9.60;;;5.70;;
37199;SDS011;23096;50.892;16.746;2023-05-10T02:40:21;6.70;;;5.20;;
37199;SDS011;23096;50.892;16.746;2023-05-10T02:42:50;7.20;;;5.80;;
37199;SDS011;23096;50.892;16.746;2023-05-10T02:45:18;8.80;;;5.50;;
37199;SDS011;23096;50.892;16.746;2023-05-10T02:47:47;8.40;;;5.50;;
37199;SDS011;23096;50.892;16.746;2023-05-10T02:50:13;9.10;;;5.70;;
37199;SDS011;23096;50.892;16.746;2023-05-10T02:52:41;7.40;;;4.80;;
37199;SDS011;23096;50.892;16.746;2023-05-10T02:55:12;12.90;;;5.20;;
37199;SDS011;23096;50.892;16.746;2023-05-10T02:57:41;8.10;;;5.20;;
37199;SDS011;23096;50.892;16.746;2023-05-10T03:00:14;8.00;;;5.10;;
37199;SDS011;23096;50.892;16.746;2023-05-10T03:02:39;8.20;;;4.60;;
37199;SDS011;23096;50.892;16.746;2023-05-10T03:05:05;6.60;;;4.40;;
37199;SDS011;23096;50.892;16.746;2023-05-10T03:07:32;8.00;;;4.80;;
37199;SDS011;23096;50.892;16.746;2023-05-10T03:09:58;11.10;;;5.30;;
37199;SDS011;23096;50.892;16.746;2023-05-10T03:18:23;10.30;;;5.10;;
37199;SDS011;23096;50.892;16.746;2023-05-10T03:21:01;9.30;;;5.30;;
37199;SDS011;23096;50.892;16.746;2023-05-10T03:23:34;10.00;;;5.80;;
37199;SDS011;23096;50.892;16.746;2023-05-10T03:26:03;12.00;;;6.50;;
37199;SDS011;23096;50.892;16.746;2023-05-10T03:28:30;10.70;;;6.40;;
37199;SDS011;23096;50.892;16.746;2023-05-10T03:30:58;9.60;;;6.20;;
37199;SDS011;23096;50.892;16.746;2023-05-10T03:33:25;10.60;;;6.30;;
37199;SDS011;23096;50.892;16.746;2023-05-10T03:35:50;8.20;;;5.30;;
37199;SDS011;23096;50.892;16.746;2023-05-10T03:38:16;9.40;;;5.50;;
37199;SDS011;23096;50.892;16.746;2023-05-10T03:40:42;10.10;;;5.60;;
37199;SDS011;23096;50.892;16.746;2023-05-10T03:43:07;9.00;;;5.00;;
37199;SDS011;23096;50.892;16.746;2023-05-10T03:45:33;7.40;;;5.40;;
37199;SDS011;23096;50.892;16.746;2023-05-10T03:47:58;8.50;;;5.60;;
37199;SDS011;23096;50.892;16.746;2023-05-10T03:50:24;8.70;;;5.30;;
37199;SDS011;23096;50.892;16.746;2023-05-10T03:52:50;8.10;;;5.40;;
37199;SDS011;23096;50.892;16.746;2023-05-10T03:55:15;7.60;;;5.10;;
37199;SDS011;23096;50.892;16.746;2023-05-10T03:57:42;8.50;;;5.30;;
37199;SDS011;23096;50.892;16.746;2023-05-10T04:00:08;7.60;;;5.40;;
37199;SDS011;23096;50.892;16.746;2023-05-10T04:02:40;8.60;;;5.30;;
37199;SDS011;23096;50.892;16.746;2023-05-10T04:05:08;7.50;;;5.30;;
37199;SDS011;23096;50.892;16.746;2023-05-10T04:07:34;14.50;;;6.20;;
37199;SDS011;23096;50.892;16.746;2023-05-10T04:10:00;7.30;;;4.80;;
37199;SDS011;23096;50.892;16.746;2023-05-10T04:12:26;5.90;;;4.60;;
37199;SDS011;23096;50.892;16.746;2023-05-10T04:14:51;8.70;;;5.80;;
37199;SDS011;23096;50.892;16.746;2023-05-10T04:17:17;9.30;;;4.90;;
37199;SDS011;23096;50.892;16.746;2023-05-10T04:19:42;6.40;;;4.60;;
37199;SDS011;23096;50.892;16.746;2023-05-10T04:22:08;7.20;;;4.70;;
37199;SDS011;23096;50.892;16.746;2023-05-10T04:24:34;5.80;;;4.20;;
37199;SDS011;23096;50.892;16.746;2023-05-10T04:26:59;6.10;;;4.70;;
37199;SDS011;23096;50.892;16.746;2023-05-10T04:29:25;7.00;;;4.40;;
37199;SDS011;23096;50.892;16.746;2023-05-10T04:31:51;7.10;;;4.10;;
37199;SDS011;23096;50.892;16.746;2023-05-10T04:34:17;7.10;;;4.40;;
37199;SDS011;23096;50.892;16.746;2023-05-10T04:36:43;10.30;;;5.10;;
37199;SDS011;23096;50.892;16.746;2023-05-10T04:39:08;6.10;;;4.30;;
37199;SDS011;23096;50.892;16.746;2023-05-10T04:41:35;10.60;;;4.70;;
37199;SDS011;23096;50.892;16.746;2023-05-10T04:44:00;6.70;;;4.60;;
37199;SDS011;23096;50.892;16.746;2023-05-10T04:46:26;8.00;;;4.60;;
37199;SDS011;23096;50.892;16.746;2023-05-10T04:48:51;8.40;;;4.70;;
37199;SDS011;23096;50.892;16.746;2023-05-10T04:51:17;6.80;;;5.00;;
37199;SDS011;23096;50.892;16.746;2023-05-10T04:53:42;6.40;;;4.30;;
37199;SDS011;23096;50.892;16.746;2023-05-10T04:56:08;5.50;;;4.40;;
37199;SDS011;23096;50.892;16.746;2023-05-10T04:58:33;8.40;;;4.90;;
37199;SDS011;23096;50.892;16.746;2023-05-10T05:01:06;9.00;;;5.30;;
37199;SDS011;23096;50.892;16.746;2023-05-10T05:03:32;7.90;;;4.90;;
37199;SDS011;23096;50.892;16.746;2023-05-10T05:05:58;9.40;;;4.70;;
37199;SDS011;23096;50.892;16.746;2023-05-10T05:08:24;4.90;;;4.00;;
37199;SDS011;23096;50.892;16.746;2023-05-10T05:10:49;7.10;;;4.90;;
37199;SDS011;23096;50.892;16.746;2023-05-10T05:13:15;5.70;;;4.60;;
37199;SDS011;23096;50.892;16.746;2023-05-10T05:15:40;9.10;;;5.80;;
37199;SDS011;23096;50.892;16.746;2023-05-10T05:18:06;8.50;;;5.40;;
37199;SDS011;23096;50.892;16.746;2023-05-10T05:20:32;8.40;;;6.30;;
37199;SDS011;23096;50.892;16.746;2023-05-10T05:22:59;8.80;;;5.50;;
37199;SDS011;23096;50.892;16.746;2023-05-10T05:25:25;8.20;;;5.70;;
37199;SDS011;23096;50.892;16.746;2023-05-10T05:27:51;6.70;;;5.00;;
37199;SDS011;23096;50.892;16.746;2023-05-10T05:30:16;9.40;;;6.10;;
37199;SDS011;23096;50.892;16.746;2023-05-10T05:32:42;8.80;;;5.50;;
37199;SDS011;23096;50.892;16.746;2023-05-10T05:35:08;10.10;;;5.40;;
37199;SDS011;23096;50.892;16.746;2023-05-10T05:37:34;7.50;;;5.40;;
37199;SDS011;23096;50.892;16.746;2023-05-10T05:40:00;8.20;;;5.20;;
37199;SDS011;23096;50.892;16.746;2023-05-10T05:42:26;12.00;;;5.70;;
37199;SDS011;23096;50.892;16.746;2023-05-10T05:44:52;7.00;;;5.40;;
37199;SDS011;23096;50.892;16.746;2023-05-10T05:47:18;8.00;;;5.60;;
37199;SDS011;23096;50.892;16.746;2023-05-10T05:49:43;9.40;;;6.30;;
37199;SDS011;23096;50.892;16.746;2023-05-10T05:52:12;9.40;;;5.80;;
37199;SDS011;23096;50.892;16.746;2023-05-10T05:54:37;6.90;;;5.80;;
37199;SDS011;23096;50.892;16.746;2023-05-10T05:57:03;7.90;;;5.90;;
37199;SDS011;23096;50.892;16.746;2023-05-10T05:59:28;8.70;;;5.50;;
37199;SDS011;23096;50.892;16.746;2023-05-10T06:01:54;10.20;;;5.60;;
37199;SDS011;23096;50.892;16.746;2023-05-10T06:04:20;9.40;;;6.00;;
37199;SDS011;23096;50.892;16.746;2023-05-10T06:06:45;9.20;;;6.00;;
37199;SDS011;23096;50.892;16.746;2023-05-10T06:09:11;9.60;;;5.80;;
37199;SDS011;23096;50.892;16.746;2023-05-10T06:11:37;7.90;;;6.00;;
37199;SDS011;23096;50.892;16.746;2023-05-10T06:14:03;9.00;;;6.00;;
37199;SDS011;23096;50.892;16.746;2023-05-10T06:16:30;8.10;;;5.80;;
37199;SDS011;23096;50.892;16.746;2023-05-10T06:18:56;9.30;;;5.40;;
37199;SDS011;23096;50.892;16.746;2023-05-10T06:21:22;8.70;;;5.60;;
37199;SDS011;23096;50.892;16.746;2023-05-10T06:23:47;6.90;;;4.70;;
37199;SDS011;23096;50.892;16.746;2023-05-10T06:26:13;6.70;;;4.30;;
37199;SDS011;23096;50.892;16.746;2023-05-10T06:28:39;7.40;;;4.60;;
37199;SDS011;23096;50.892;16.746;2023-05-10T06:31:05;8.50;;;4.00;;
37199;SDS011;23096;50.892;16.746;2023-05-10T06:33:31;9.20;;;4.70;;
37199;SDS011;23096;50.892;16.746;2023-05-10T06:35:57;6.10;;;4.90;;
37199;SDS011;23096;50.892;16.746;2023-05-10T06:38:23;9.00;;;5.50;;
37199;SDS011;23096;50.892;16.746;2023-05-10T06:40:49;6.50;;;4.90;;
37199;SDS011;23096;50.892;16.746;2023-05-10T06:43:14;7.60;;;5.10;;
37199;SDS011;23096;50.892;16.746;2023-05-10T06:45:40;6.30;;;4.30;;
37199;SDS011;23096;50.892;16.746;2023-05-10T06:48:06;7.40;;;4.40;;
37199;SDS011;23096;50.892;16.746;2023-05-10T06:50:32;6.80;;;4.40;;
37199;SDS011;23096;50.892;16.746;2023-05-10T06:52:58;5.30;;;3.70;;
37199;SDS011;23096;50.892;16.746;2023-05-10T06:55:24;5.70;;;3.20;;
37199;SDS011;23096;50.892;16.746;2023-05-10T06:57:51;4.20;;;3.60;;
37199;SDS011;23096;50.892;16.746;2023-05-10T07:00:18;4.60;;;3.60;;
37199;SDS011;23096;50.892;16.746;2023-05-10T07:02:44;5.70;;;4.80;;
37199;SDS011;23096;50.892;16.746;2023-05-10T07:05:11;5.30;;;4.10;;
37199;SDS011;23096;50.892;16.746;2023-05-10T07:07:37;6.60;;;4.20;;
37199;SDS011;23096;50.892;16.746;2023-05-10T07:10:03;6.90;;;3.40;;
37199;SDS011;23096;50.892;16.746;2023-05-10T07:12:29;11.70;;;4.70;;
37199;SDS011;23096;50.892;16.746;2023-05-10T07:14:54;7.00;;;3.80;;
37199;SDS011;23096;50.892;16.746;2023-05-10T07:17:20;4.10;;;3.20;;
37199;SDS011;23096;50.892;16.746;2023-05-10T07:19:45;4.20;;;3.20;;
37199;SDS011;23096;50.892;16.746;2023-05-10T07:22:11;7.60;;;3.00;;
37199;SDS011;23096;50.892;16.746;2023-05-10T07:24:36;5.40;;;3.60;;
37199;SDS011;23096;50.892;16.746;2023-05-10T07:27:02;5.50;;;3.40;;
37199;SDS011;23096;50.892;16.746;2023-05-10T07:29:28;4.40;;;3.40;;
37199;SDS011;23096;50.892;16.746;2023-05-10T07:31:53;6.10;;;3.20;;
37199;SDS011;23096;50.892;16.746;2023-05-10T07:34:19;3.70;;;3.10;;
37199;SDS011;23096;50.892;16.746;2023-05-10T07:36:44;5.10;;;3.00;;
37199;SDS011;23096;50.892;16.746;2023-05-10T07:39:10;5.10;;;3.10;;
37199;SDS011;23096;50.892;16.746;2023-05-10T07:41:36;6.20;;;3.80;;
37199;SDS011;23096;50.892;16.746;2023-05-10T07:44:02;3.60;;;2.80;;
37199;SDS011;23096;50.892;16.746;2023-05-10T07:46:29;5.90;;;2.80;;
37199;SDS011;23096;50.892;16.746;2023-05-10T07:48:54;6.30;;;3.60;;
37199;SDS011;23096;50.892;16.746;2023-05-10T07:51:20;4.90;;;3.30;;
37199;SDS011;23096;50.892;16.746;2023-05-10T07:53:46;4.40;;;3.70;;
37199;SDS011;23096;50.892;16.746;2023-05-10T07:56:24;5.40;;;3.80;;
37199;SDS011;23096;50.892;16.746;2023-05-10T07:58:54;4.60;;;3.80;;
37199;SDS011;23096;50.892;16.746;2023-05-10T08:01:21;4.40;;;3.20;;
37199;SDS011;23096;50.892;16.746;2023-05-10T08:03:47;4.30;;;3.40;;
37199;SDS011;23096;50.892;16.746;2023-05-10T08:06:14;6.10;;;4.10;;
37199;SDS011;23096;50.892;16.746;2023-05-10T08:08:40;5.40;;;2.80;;
37199;SDS011;23096;50.892;16.746;2023-05-10T08:11:06;6.90;;;3.60;;
37199;SDS011;23096;50.892;16.746;2023-05-10T08:13:32;6.40;;;3.50;;
37199;SDS011;23096;50.892;16.746;2023-05-10T08:15:58;5.20;;;3.10;;
37199;SDS011;23096;50.892;16.746;2023-05-10T08:18:24;8.50;;;3.40;;
37199;SDS011;23096;50.892;16.746;2023-05-10T08:20:49;4.10;;;3.40;;
37199;SDS011;23096;50.892;16.746;2023-05-10T08:23:15;3.60;;;3.10;;
37199;SDS011;23096;50.892;16.746;2023-05-10T08:25:40;7.10;;;4.10;;
37199;SDS011;23096;50.892;16.746;2023-05-10T08:28:06;4.30;;;3.10;;
37199;SDS011;23096;50.892;16.746;2023-05-10T08:30:32;4.20;;;2.90;;
37199;SDS011;23096;50.892;16.746;2023-05-10T08:32:57;5.30;;;3.00;;
37199;SDS011;23096;50.892;16.746;2023-05-10T08:35:23;3.40;;;3.00;;
37199;SDS011;23096;50.892;16.746;2023-05-10T08:37:50;12.00;;;4.30;;
37199;SDS011;23096;50.892;16.746;2023-05-10T08:40:16;3.40;;;3.00;;
37199;SDS011;23096;50.892;16.746;2023-05-10T08:42:46;4.20;;;3.10;;
37199;SDS011;23096;50.892;16.746;2023-05-10T08:45:19;5.50;;;3.40;;
37199;SDS011;23096;50.892;16.746;2023-05-10T08:47:48;7.20;;;3.30;;
37199;SDS011;23096;50.892;16.746;2023-05-10T08:50:15;4.20;;;3.20;;
37199;SDS011;23096;50.892;16.746;2023-05-10T08:52:42;5.30;;;3.10;;
37199;SDS011;23096;50.892;16.746;2023-05-10T08:55:10;4.40;;;2.90;;
37199;SDS011;23096;50.892;16.746;2023-05-10T08:57:35;3.90;;;2.60;;
37199;SDS011;23096;50.892;16.746;2023-05-10T09:00:01;5.50;;;3.20;;
37199;SDS011;23096;50.892;16.746;2023-05-10T09:02:27;5.70;;;2.90;;
37199;SDS011;23096;50.892;16.746;2023-05-10T09:04:53;7.00;;;4.00;;
37199;SDS011;23096;50.892;16.746;2023-05-10T09:07:19;4.60;;;3.00;;
37199;SDS011;23096;50.892;16.746;2023-05-10T09:09:45;3.50;;;3.10;;
37199;SDS011;23096;50.892;16.746;2023-05-10T09:12:11;5.10;;;3.30;;
37199;SDS011;23096;50.892;16.746;2023-05-10T09:14:38;6.00;;;2.60;;
37199;SDS011;23096;50.892;16.746;2023-05-10T09:17:04;4.40;;;3.00;;
37199;SDS011;23096;50.892;16.746;2023-05-10T09:19:30;6.50;;;2.60;;
37199;SDS011;23096;50.892;16.746;2023-05-10T09:21:55;5.80;;;2.70;;
37199;SDS011;23096;50.892;16.746;2023-05-10T09:24:25;3.40;;;2.50;;
37199;SDS011;23096;50.892;16.746;2023-05-10T09:26:52;5.80;;;3.00;;
37199;SDS011;23096;50.892;16.746;2023-05-10T09:29:17;3.20;;;2.80;;
37199;SDS011;23096;50.892;16.746;2023-05-10T09:31:50;6.00;;;2.80;;
37199;SDS011;23096;50.892;16.746;2023-05-10T09:34:18;4.30;;;3.10;;
37199;SDS011;23096;50.892;16.746;2023-05-10T09:36:52;3.10;;;2.70;;
37199;SDS011;23096;50.892;16.746;2023-05-10T09:39:19;9.40;;;3.40;;
37199;SDS011;23096;50.892;16.746;2023-05-10T09:41:45;4.30;;;3.10;;
37199;SDS011;23096;50.892;16.746;2023-05-10T09:44:11;5.90;;;2.60;;
37199;SDS011;23096;50.892;16.746;2023-05-10T09:46:36;8.20;;;2.50;;
37199;SDS011;23096;50.892;16.746;2023-05-10T09:49:02;4.10;;;3.10;;
37199;SDS011;23096;50.892;16.746;2023-05-10T09:51:27;4.20;;;2.80;;
37199;SDS011;23096;50.892;16.746;2023-05-10T09:54:11;3.20;;;2.50;;
37199;SDS011;23096;50.892;16.746;2023-05-10T09:56:39;3.90;;;2.60;;
37199;SDS011;23096;50.892;16.746;2023-05-10T09:59:06;7.00;;;2.60;;
37199;SDS011;23096;50.892;16.746;2023-05-10T10:01:33;4.10;;;2.50;;
37199;SDS011;23096;50.892;16.746;2023-05-10T10:04:04;3.70;;;2.50;;
37199;SDS011;23096;50.892;16.746;2023-05-10T10:06:34;4.30;;;2.70;;
37199;SDS011;23096;50.892;16.746;2023-05-10T10:09:02;4.80;;;2.60;;
37199;SDS011;23096;50.892;16.746;2023-05-10T10:11:27;4.30;;;3.00;;
37199;SDS011;23096;50.892;16.746;2023-05-10T10:13:53;2.20;;;1.60;;
37199;SDS011;23096;50.892;16.746;2023-05-10T10:16:19;4.70;;;1.80;;
37199;SDS011;23096;50.892;16.746;2023-05-10T10:18:46;2.40;;;1.90;;
37199;SDS011;23096;50.892;16.746;2023-05-10T10:21:13;2.00;;;1.80;;
37199;SDS011;23096;50.892;16.746;2023-05-10T10:23:40;2.50;;;1.50;;
37199;SDS011;23096;50.892;16.746;2023-05-10T10:26:05;1.50;;;1.40;;
37199;SDS011;23096;50.892;16.746;2023-05-10T10:36:47;2.10;;;1.90;;
37199;SDS011;23096;50.892;16.746;2023-05-10T10:39:13;6.40;;;1.70;;
37199;SDS011;23096;50.892;16.746;2023-05-10T10:41:41;4.80;;;2.20;;
37199;SDS011;23096;50.892;16.746;2023-05-10T10:49:51;2.50;;;1.60;;
37199;SDS011;23096;50.892;16.746;2023-05-10T10:52:28;7.30;;;1.80;;
37199;SDS011;23096;50.892;16.746;2023-05-10T10:54:59;1.90;;;1.70;;
37199;SDS011;23096;50.892;16.746;2023-05-10T10:57:31;2.60;;;2.20;;
37199;SDS011;23096;50.892;16.746;2023-05-10T11:02:50;1.40;;;1.20;;
37199;SDS011;23096;50.892;16.746;2023-05-10T11:05:23;2.90;;;1.50;;
37199;SDS011;23096;50.892;16.746;2023-05-10T11:07:58;2.50;;;1.50;;
37199;SDS011;23096;50.892;16.746;2023-05-10T11:10:25;2.20;;;2.00;;
37199;SDS011;23096;50.892;16.746;2023-05-10T11:15:30;2.30;;;1.60;;
37199;SDS011;23096;50.892;16.746;2023-05-10T11:17:57;3.30;;;1.80;;
37199;SDS011;23096;50.892;16.746;2023-05-10T11:20:23;2.00;;;1.80;;
37199;SDS011;23096;50.892;16.746;2023-05-10T11:22:58;2.20;;;2.00;;
37199;SDS011;23096;50.892;16.746;2023-05-10T11:25:40;4.80;;;2.10;;
37199;SDS011;23096;50.892;16.746;2023-05-10T11:28:10;2.20;;;1.60;;
37199;SDS011;23096;50.892;16.746;2023-05-10T11:30:39;5.30;;;1.80;;
37199;SDS011;23096;50.892;16.746;2023-05-10T11:33:06;2.30;;;1.70;;
37199;SDS011;23096;50.892;16.746;2023-05-10T11:35:39;3.60;;;1.70;;
37199;SDS011;23096;50.892;16.746;2023-05-10T11:38:06;2.40;;;1.80;;
37199;SDS011;23096;50.892;16.746;2023-05-10T11:40:36;3.40;;;1.70;;
37199;SDS011;23096;50.892;16.746;2023-05-10T11:43:03;1.60;;;1.40;;
37199;SDS011;23096;50.892;16.746;2023-05-10T11:45:31;1.90;;;1.60;;
37199;SDS011;23096;50.892;16.746;2023-05-10T11:47:58;4.90;;;2.60;;
37199;SDS011;23096;50.892;16.746;2023-05-10T11:50:24;3.20;;;1.60;;
37199;SDS011;23096;50.892;16.746;2023-05-10T11:52:57;1.90;;;1.60;;
37199;SDS011;23096;50.892;16.746;2023-05-10T11:55:24;4.60;;;1.50;;
37199;SDS011;23096;50.892;16.746;2023-05-10T11:57:53;2.60;;;1.70;;
37199;SDS011;23096;50.892;16.746;2023-05-10T12:00:19;1.70;;;1.40;;
37199;SDS011;23096;50.892;16.746;2023-05-10T12:02:46;2.70;;;1.90;;
37199;SDS011;23096;50.892;16.746;2023-05-10T12:05:12;3.90;;;1.60;;
37199;SDS011;23096;50.892;16.746;2023-05-10T12:07:38;3.90;;;1.70;;
37199;SDS011;23096;50.892;16.746;2023-05-10T12:10:07;2.60;;;1.30;;
37199;SDS011;23096;50.892;16.746;2023-05-10T12:12:38;1.20;;;1.10;;
37199;SDS011;23096;50.892;16.746;2023-05-10T12:15:10;2.10;;;1.70;;
37199;SDS011;23096;50.892;16.746;2023-05-10T12:17:38;1.30;;;1.20;;
37199;SDS011;23096;50.892;16.746;2023-05-10T12:20:21;3.10;;;1.50;;
37199;SDS011;23096;50.892;16.746;2023-05-10T12:22:52;3.70;;;1.40;;
37199;SDS011;23096;50.892;16.746;2023-05-10T12:25:23;3.10;;;1.50;;
37199;SDS011;23096;50.892;16.746;2023-05-10T12:27:52;3.40;;;1.40;;
37199;SDS011;23096;50.892;16.746;2023-05-10T12:30:27;3.90;;;1.10;;
37199;SDS011;23096;50.892;16.746;2023-05-10T12:33:02;1.30;;;1.20;;
37199;SDS011;23096;50.892;16.746;2023-05-10T12:35:32;5.60;;;1.50;;
37199;SDS011;23096;50.892;16.746;2023-05-10T12:37:59;2.20;;;1.10;;
37199;SDS011;23096;50.892;16.746;2023-05-10T12:40:25;1.70;;;1.40;;
37199;SDS011;23096;50.892;16.746;2023-05-10T12:42:50;7.10;;;3.00;;
37199;SDS011;23096;50.892;16.746;2023-05-10T12:45:17;3.70;;;1.10;;
37199;SDS011;23096;50.892;16.746;2023-05-10T12:47:43;1.20;;;1.00;;
37199;SDS011;23096;50.892;16.746;2023-05-10T12:50:08;1.80;;;1.40;;
37199;SDS011;23096;50.892;16.746;2023-05-10T12:52:35;1.80;;;1.40;;
37199;SDS011;23096;50.892;16.746;2023-05-10T12:55:00;2.30;;;1.10;;
37199;SDS011;23096;50.892;16.746;2023-05-10T12:57:26;1.50;;;1.20;;
37199;SDS011;23096;50.892;16.746;2023-05-10T12:59:53;3.60;;;1.70;;
37199;SDS011;23096;50.892;16.746;2023-05-10T13:02:19;3.40;;;1.50;;
37199;SDS011;23096;50.892;16.746;2023-05-10T13:04:45;2.00;;;1.30;;
37199;SDS011;23096;50.892;16.746;2023-05-10T13:07:11;2.40;;;1.30;;
37199;SDS011;23096;50.892;16.746;2023-05-10T13:09:37;3.40;;;1.70;;
37199;SDS011;23096;50.892;16.746;2023-05-10T13:12:03;2.80;;;1.10;;
37199;SDS011;23096;50.892;16.746;2023-05-10T13:14:29;1.60;;;1.40;;
37199;SDS011;23096;50.892;16.746;2023-05-10T13:16:55;6.20;;;1.50;;
37199;SDS011;23096;50.892;16.746;2023-05-10T13:19:20;1.70;;;1.20;;
37199;SDS011;23096;50.892;16.746;2023-05-10T13:21:46;1.30;;;1.20;;
37199;SDS011;23096;50.892;16.746;2023-05-10T13:24:12;1.60;;;1.50;;
37199;SDS011;23096;50.892;16.746;2023-05-10T13:26:40;4.40;;;1.50;;
37199;SDS011;23096;50.892;16.746;2023-05-10T13:29:06;2.00;;;1.50;;
37199;SDS011;23096;50.892;16.746;2023-05-10T13:31:33;1.60;;;1.20;;
37199;SDS011;23096;50.892;16.746;2023-05-10T13:33:59;4.40;;;1.50;;
37199;SDS011;23096;50.892;16.746;2023-05-10T13:36:24;2.40;;;1.10;;
37199;SDS011;23096;50.892;16.746;2023-05-10T13:38:50;2.70;;;1.30;;
37199;SDS011;23096;50.892;16.746;2023-05-10T13:41:15;1.50;;;1.30;;
37199;SDS011;23096;50.892;16.746;2023-05-10T13:43:41;7.20;;;1.20;;
37199;SDS011;23096;50.892;16.746;2023-05-10T13:46:06;3.50;;;1.50;;
37199;SDS011;23096;50.892;16.746;2023-05-10T13:48:32;7.00;;;1.90;;
37199;SDS011;23096;50.892;16.746;2023-05-10T13:50:57;2.30;;;1.50;;
37199;SDS011;23096;50.892;16.746;2023-05-10T13:53:23;1.80;;;1.20;;
37199;SDS011;23096;50.892;16.746;2023-05-10T13:55:48;2.90;;;1.50;;
37199;SDS011;23096;50.892;16.746;2023-05-10T13:58:14;2.90;;;1.30;;
37199;SDS011;23096;50.892;16.746;2023-05-10T14:00:40;1.20;;;1.00;;
37199;SDS011;23096;50.892;16.746;2023-05-10T14:03:06;0.90;;;0.80;;
37199;SDS011;23096;50.892;16.746;2023-05-10T14:05:32;1.20;;;1.10;;
37199;SDS011;23096;50.892;16.746;2023-05-10T14:07:58;3.00;;;1.50;;
37199;SDS011;23096;50.892;16.746;2023-05-10T14:10:23;2.60;;;1.40;;
37199;SDS011;23096;50.892;16.746;2023-05-10T14:12:49;1.30;;;0.90;;
37199;SDS011;23096;50.892;16.746;2023-05-10T14:15:15;3.40;;;1.20;;
37199;SDS011;23096;50.892;16.746;2023-05-10T14:17:41;1.30;;;0.90;;
37199;SDS011;23096;50.892;16.746;2023-05-10T14:20:07;1.20;;;1.10;;
37199;SDS011;23096;50.892;16.746;2023-05-10T14:22:33;3.10;;;2.20;;
37199;SDS011;23096;50.892;16.746;2023-05-10T14:24:59;2.70;;;1.50;;
37199;SDS011;23096;50.892;16.746;2023-05-10T14:27:25;1.50;;;1.40;;
37199;SDS011;23096;50.892;16.746;2023-05-10T14:29:51;1.90;;;1.30;;
37199;SDS011;23096;50.892;16.746;2023-05-10T14:32:18;1.30;;;1.20;;
37199;SDS011;23096;50.892;16.746;2023-05-10T14:34:44;2.30;;;1.40;;
37199;SDS011;23096;50.892;16.746;2023-05-10T14:37:12;0.90;;;0.80;;
37199;SDS011;23096;50.892;16.746;2023-05-10T14:39:39;2.10;;;1.30;;
37199;SDS011;23096;50.892;16.746;2023-05-10T14:42:04;0.90;;;0.90;;
37199;SDS011;23096;50.892;16.746;2023-05-10T14:44:30;3.40;;;1.20;;
37199;SDS011;23096;50.892;16.746;2023-05-10T14:46:56;1.40;;;1.10;;
37199;SDS011;23096;50.892;16.746;2023-05-10T14:49:22;3.60;;;1.00;;
37199;SDS011;23096;50.892;16.746;2023-05-10T14:51:49;3.50;;;1.10;;
37199;SDS011;23096;50.892;16.746;2023-05-10T14:54:15;0.90;;;0.90;;
37199;SDS011;23096;50.892;16.746;2023-05-10T14:56:41;3.90;;;1.60;;
37199;SDS011;23096;50.892;16.746;2023-05-10T14:59:07;3.00;;;1.00;;
37199;SDS011;23096;50.892;16.746;2023-05-10T15:01:33;2.60;;;1.20;;
37199;SDS011;23096;50.892;16.746;2023-05-10T15:04:02;2.80;;;1.50;;
37199;SDS011;23096;50.892;16.746;2023-05-10T15:06:31;1.70;;;1.40;;
37199;SDS011;23096;50.892;16.746;2023-05-10T15:08:58;1.30;;;1.20;;
37199;SDS011;23096;50.892;16.746;2023-05-10T15:11:25;2.00;;;1.10;;